Decoded Metar for KIFA ( in _UNIDENTIFIED) (IATA:N/A) | Meteo·Mobile Aviation Weather
aviador You're here:

KIFA Decoded Metar

in _UNIDENTIFIED
Report Time2019-01-19 02:35:00
UTC Time2019-01-19 02:51:32
Flight Rules vfr VFR
Wind030° at 16 Gusting to 21 kt
W.Decomp.*RWY 31: 3.1 kt HW 15.7 kt RCW
W.Rank030° ranks 34
Current wind is above 030° avg. (7.2)
Visibility9999 m
Phenomena:N/A
Clouds:Broken 055 Hf
Overcast 065 Hf
Expected CloudBase > 800 ft AGL from Temp-Dew spread
Ceiling5,500 ft
Temp-8°C (ISA -21)
Dew Point-10°C (86% RH)
AAT-16.8°C
QNH1020 hPa
Density Alt-1,631 ft
Elevation1,138 ft
Report Wrong Elevation
Raw Report
KIFA 190235Z AUTO 03016G21KT 10SM BKN055 OVC065 M08/M10 A3011 RMK
AO2 T10821100=

Extra information for KIFA:More info

Metar Taf Metar & Taf Last 4 Metars F.Rules Stats Wind Profile Meteogram Temp Stats Metar ALERT Operation Metar Decoded Social comments